Time;durP1;ratioP1;P1;durP2;ratioP2;P2;SDS_P1;SDS_P2;PMS_P1;PMS_P2;Temp;Humidity;BMP_temperature;BMP_pressure;BME280_temperature;BME280_humidity;BME280_pressure;Samples;Min_cycle;Max_cycle;Signal;HPM_P1;HPM_P2
2022/05/14 00:01:42;;;;;;;2.33;1.33;;;19.50;56.90;;;;;;10418544;28;20347;-56
2022/05/14 00:06:43;;;;;;;3.20;1.30;;;19.50;56.90;;;;;;10418295;28;20029;-55
2022/05/14 00:17:04;;;;;;;2.47;1.60;;;19.50;57.00;;;;;;10417843;28;20045;-57
2022/05/14 00:22:04;;;;;;;3.15;1.65;;;19.50;56.90;;;;;;10425192;28;20033;-56
2022/05/14 00:27:05;;;;;;;3.92;1.90;;;19.50;57.00;;;;;;10417852;28;20104;-56
2022/05/14 00:32:07;;;;;;;3.05;1.42;;;19.50;57.00;;;;;;10417624;28;20065;-56
2022/05/14 00:37:07;;;;;;;2.95;1.88;;;19.50;57.00;;;;;;10415799;28;20374;-55
2022/05/14 00:42:08;;;;;;;3.95;1.92;;;19.50;57.10;;;;;;10417147;28;20117;-56
2022/05/14 00:47:16;;;;;;;2.90;1.48;;;19.50;57.00;;;;;;10416721;28;20428;-56
2022/05/14 00:52:19;;;;;;;4.22;1.88;;;19.50;57.10;;;;;;10416441;28;20029;-57
2022/05/14 00:57:25;;;;;;;3.25;1.67;;;19.50;57.70;;;;;;10431471;28;20144;-55
2022/05/14 01:02:28;;;;;;;2.78;1.13;;;19.40;57.10;;;;;;10431377;28;20121;-57
2022/05/14 01:07:30;;;;;;;3.03;1.67;;;19.40;57.10;;;;;;10416158;28;20137;-57
2022/05/14 01:12:33;;;;;;;3.42;1.83;;;19.40;57.10;;;;;;10416134;28;20021;-57
2022/05/14 01:17:34;;;;;;;2.88;1.10;;;19.40;57.10;;;;;;10415975;28;20045;-57
2022/05/14 01:23:05;;;;;;;3.10;1.40;;;19.40;57.10;;;;;;10420827;28;20061;-57
2022/05/14 01:28:06;;;;;;;3.90;1.63;;;19.40;57.10;;;;;;10414766;28;20033;-57
2022/05/14 01:33:07;;;;;;;3.53;1.25;;;19.40;57.00;;;;;;10413805;28;20446;-57
2022/05/14 01:38:09;;;;;;;6.90;1.52;;;19.40;57.10;;;;;;10414292;28;20057;-57
2022/05/14 01:43:10;;;;;;;4.22;1.70;;;19.40;57.00;;;;;;10414840;28;20087;-55
2022/05/14 01:48:11;;;;;;;2.47;1.20;;;19.40;57.00;;;;;;10429966;28;20067;-56
2022/05/14 01:53:12;;;;;;;4.75;1.48;;;19.40;57.10;;;;;;10414526;28;20025;-56
2022/05/14 02:03:32;;;;;;;2.00;1.50;;;19.30;57.00;;;;;;10412588;28;20065;-57
2022/05/14 02:08:33;;;;;;;2.65;1.25;;;19.30;57.00;;;;;;10414039;28;20521;-57
2022/05/14 02:13:36;;;;;;;4.38;1.80;;;19.30;57.00;;;;;;10414004;28;20046;-56
2022/05/14 02:18:37;;;;;;;2.17;1.13;;;19.30;57.00;;;;;;10413607;28;20044;-57
2022/05/14 02:23:39;;;;;;;2.80;1.95;;;19.30;57.00;;;;;;10418870;28;20040;-57
2022/05/14 02:28:41;;;;;;;2.33;1.38;;;19.30;57.00;;;;;;10413177;28;20061;-56
2022/05/14 02:33:42;;;;;;;3.63;1.73;;;19.30;57.10;;;;;;10413293;28;20084;-57
2022/05/14 02:38:42;;;;;;;3.08;1.67;;;19.30;57.10;;;;;;10412900;28;20029;-56
2022/05/14 02:43:44;;;;;;;3.25;1.55;;;19.30;57.10;;;;;;10412977;28;20460;-57
2022/05/14 02:48:44;;;;;;;2.05;1.20;;;19.30;57.10;;;;;;10412838;28;20059;-55
2022/05/14 02:53:45;;;;;;;3.30;1.60;;;19.30;57.10;;;;;;10409324;28;20164;-57
2022/05/14 03:04:06;;;;;;;4.20;1.48;;;19.30;57.10;;;;;;10413240;28;20045;-56
2022/05/14 03:09:06;;;;;;;3.05;1.60;;;19.30;57.10;;;;;;10412699;28;20040;-57
2022/05/14 03:14:07;;;;;;;3.13;1.42;;;19.30;57.20;;;;;;10416027;28;20025;-57
2022/05/14 03:19:08;;;;;;;2.47;1.30;;;19.30;57.20;;;;;;10420451;28;20489;-57
2022/05/14 03:24:11;;;;;;;3.17;1.85;;;19.20;57.10;;;;;;10426520;28;20036;-55
2022/05/14 03:29:12;;;;;;;2.67;1.20;;;19.20;57.10;;;;;;10419997;28;20042;-57
2022/05/14 03:34:13;;;;;;;3.63;1.38;;;19.20;57.20;;;;;;10419710;28;20045;-57
2022/05/14 03:39:15;;;;;;;2.45;1.50;;;19.20;57.10;;;;;;10416897;28;20441;-57
2022/05/14 03:44:17;;;;;;;2.97;1.10;;;19.20;57.10;;;;;;10418972;28;20025;-57
2022/05/14 03:49:18;;;;;;;3.55;1.63;;;19.20;57.10;;;;;;10418137;28;20029;-57
2022/05/14 03:54:19;;;;;;;2.42;1.27;;;19.20;57.20;;;;;;10416974;28;20030;-57
2022/05/14 03:59:19;;;;;;;6.38;1.50;;;19.20;57.20;;;;;;10419029;28;20033;-57
2022/05/14 04:04:20;;;;;;;3.30;1.67;;;19.20;57.10;;;;;;10419010;28;20057;-56
2022/05/14 04:09:20;;;;;;;2.15;1.60;;;19.10;57.10;;;;;;10418469;28;20057;-56
2022/05/14 04:14:22;;;;;;;3.10;1.20;;;19.10;57.10;;;;;;10418460;28;20569;-57
2022/05/14 04:19:23;;;;;;;3.30;2.08;;;19.10;57.10;;;;;;10400590;28;20071;-57
2022/05/14 04:24:23;;;;;;;4.25;1.70;;;19.10;57.10;;;;;;10423318;28;20076;-57
2022/05/14 04:29:24;;;;;;;3.22;1.60;;;19.10;57.20;;;;;;10418321;28;20199;-56
2022/05/14 04:34:25;;;;;;;3.00;1.63;;;19.10;57.20;;;;;;10417586;28;20064;-56
2022/05/14 04:39:31;;;;;;;3.83;1.65;;;19.10;57.10;;;;;;10417455;28;20083;-57
2022/05/14 04:44:33;;;;;;;3.50;1.80;;;19.10;57.20;;;;;;10416341;28;20032;-58
2022/05/14 04:49:43;;;;;;;4.28;2.15;;;19.10;57.20;;;;;;10416938;28;20033;-58
2022/05/14 04:54:44;;;;;;;4.43;1.88;;;19.10;57.20;;;;;;10416270;28;20405;-57
2022/05/14 04:59:45;;;;;;;2.72;1.85;;;19.10;57.20;;;;;;10416727;28;20038;-58
2022/05/14 05:04:46;;;;;;;6.13;1.75;;;19.10;58.00;;;;;;10415206;28;20033;-58
2022/05/14 05:09:47;;;;;;;5.80;2.28;;;19.20;58.10;;;;;;10415194;28;20030;-55
2022/05/14 05:14:47;;;;;;;8.27;1.67;;;19.20;58.30;;;;;;10410989;28;20052;-56
2022/05/14 05:19:48;;;;;;;8.02;2.45;;;19.20;58.60;;;;;;10412432;28;20100;-55
2022/05/14 05:24:49;;;;;;;10.27;2.42;;;19.30;59.30;;;;;;10421043;28;20104;-56
2022/05/14 05:29:49;;;;;;;10.23;2.53;;;19.40;59.00;;;;;;10414598;28;20429;-56
2022/05/14 05:34:51;;;;;;;12.05;3.10;;;19.40;59.10;;;;;;10414736;28;20121;-58
2022/05/14 05:39:52;;;;;;;19.15;3.58;;;19.30;59.50;;;;;;10412510;28;20060;-55
2022/05/14 05:44:53;;;;;;;17.58;4.30;;;19.30;59.00;;;;;;10414210;28;20037;-56
2022/05/14 05:49:53;;;;;;;17.33;3.97;;;19.30;58.80;;;;;;10412253;28;20041;-58
2022/05/14 06:00:23;;;;;;;12.63;4.65;;;19.20;57.60;;;;;;10411864;28;20114;-58
2022/05/14 06:05:24;;;;;;;9.57;3.00;;;19.20;57.90;;;;;;10412260;28;20661;-57
2022/05/14 06:10:25;;;;;;;8.82;3.80;;;19.20;58.20;;;;;;10409729;28;20052;-58
2022/05/14 06:15:26;;;;;;;15.13;3.97;;;19.20;58.40;;;;;;10412427;28;20033;-58
2022/05/14 06:20:26;;;;;;;15.93;3.60;;;19.30;59.00;;;;;;10409708;28;20438;-58
2022/05/14 06:25:27;;;;;;;10.20;3.13;;;19.30;58.90;;;;;;10419261;28;20144;-58
2022/05/14 06:30:30;;;;;;;9.45;2.88;;;19.30;58.70;;;;;;10411655;28;20057;-59
2022/05/14 06:35:32;;;;;;;13.65;3.80;;;19.20;58.50;;;;;;10411453;28;20036;-59
2022/05/14 06:40:35;;;;;;;13.45;4.20;;;19.20;58.50;;;;;;10410998;28;20033;-59
2022/05/14 06:45:35;;;;;;;11.50;5.00;;;19.20;58.30;;;;;;10412571;28;20033;-56
2022/05/14 06:50:47;;;;;;;11.95;5.22;;;19.20;58.20;;;;;;10409012;28;20030;-58
2022/05/14 06:55:52;;;;;;;12.13;5.40;;;19.20;58.20;;;;;;10409756;28;20037;-59
2022/05/14 07:00:53;;;;;;;26.98;7.70;;;19.20;58.60;;;;;;10415442;28;20057;-58
2022/05/14 07:11:13;;;;;;;19.02;6.78;;;19.20;58.70;;;;;;10419091;28;20069;-58
2022/05/14 07:16:14;;;;;;;16.95;6.43;;;19.20;58.80;;;;;;10402823;28;20117;-59
2022/05/14 07:21:15;;;;;;;20.00;7.28;;;19.20;58.90;;;;;;10411496;28;20029;-59
2022/05/14 07:26:16;;;;;;;14.85;5.50;;;19.20;59.00;;;;;;10427332;28;20083;-60
2022/05/14 07:31:17;;;;;;;9.75;4.43;;;19.20;59.10;;;;;;10394632;28;20132;-59
2022/05/14 07:36:20;;;;;;;12.48;5.75;;;19.20;59.10;;;;;;10411312;28;20033;-59
2022/05/14 07:41:21;;;;;;;12.98;4.55;;;19.20;59.20;;;;;;10409874;28;20067;-59
2022/05/14 07:46:29;;;;;;;13.85;5.25;;;19.30;59.30;;;;;;10409450;28;20068;-60
2022/05/14 07:51:29;;;;;;;10.32;5.22;;;19.30;59.30;;;;;;10407148;28;20540;-59
2022/05/14 07:56:30;;;;;;;13.77;4.20;;;19.30;59.30;;;;;;10410276;28;20044;-59
2022/05/14 08:01:31;;;;;;;13.30;4.47;;;19.30;59.30;;;;;;10430612;28;20021;-60
2022/05/14 08:06:32;;;;;;;10.40;5.05;;;19.30;59.40;;;;;;10417584;28;20056;-61
2022/05/14 08:11:33;;;;;;;14.48;4.65;;;19.30;59.30;;;;;;10416138;28;20533;-59
2022/05/14 08:16:33;;;;;;;16.73;5.55;;;19.30;59.40;;;;;;10415598;28;20033;-60
2022/05/14 08:26:54;;;;;;;12.07;5.50;;;19.30;59.30;;;;;;10405373;28;20478;-60
2022/05/14 08:31:54;;;;;;;12.90;5.30;;;19.30;59.30;;;;;;10409291;28;20049;-60
2022/05/14 08:36:56;;;;;;;11.93;5.13;;;19.30;59.10;;;;;;10413428;28;20029;-61
2022/05/14 08:41:57;;;;;;;21.25;6.43;;;19.30;58.90;;;;;;10416924;28;20029;-67
2022/05/14 08:47:06;;;;;;;14.65;5.65;;;19.30;58.80;;;;;;10415508;28;20034;-61
2022/05/14 08:52:21;;;;;;;21.67;6.40;;;19.40;58.80;;;;;;10429351;28;20480;-61
2022/05/14 08:57:58;;;;;;;18.48;5.07;;;19.40;58.80;;;;;;10429061;28;20044;-61
2022/05/14 09:02:59;;;;;;;10.80;4.50;;;19.40;58.60;;;;;;10412868;28;20029;-61
2022/05/14 09:08:01;;;;;;;16.30;5.32;;;19.40;58.50;;;;;;10414120;28;20040;-61
2022/05/14 09:13:22;;;;;;;15.38;4.95;;;19.40;58.60;;;;;;10415129;28;20033;-62
2022/05/14 09:18:53;;;;;;;11.50;4.40;;;19.40;58.60;;;;;;10431293;28;20033;-61
2022/05/14 09:24:14;;;;;;;9.65;4.13;;;19.50;58.50;;;;;;10429097;28;20035;-62
2022/05/14 09:29:32;;;;;;;8.40;3.25;;;19.50;58.40;;;;;;10417874;28;20048;-62
2022/05/14 09:34:35;;;;;;;12.50;3.95;;;19.50;58.70;;;;;;10429457;28;20057;-62
2022/05/14 09:39:36;;;;;;;11.10;4.93;;;19.50;58.80;;;;;;10402148;28;20018;-62
2022/05/14 09:44:50;;;;;;;8.10;3.13;;;19.50;58.70;;;;;;10430072;28;20044;-62
2022/05/14 09:50:05;;;;;;;7.22;3.30;;;19.50;58.80;;;;;;10414457;28;20029;-62
2022/05/14 09:55:08;;;;;;;7.78;3.63;;;19.50;58.40;;;;;;10412450;28;20033;-60
2022/05/14 10:00:22;;;;;;;11.80;4.30;;;19.60;58.70;;;;;;10412625;28;20497;-62
2022/05/14 10:06:01;;;;;;;11.52;3.75;;;19.50;58.40;;;;;;10412842;28;20443;-62
2022/05/14 10:11:16;;;;;;;6.40;3.47;;;19.60;58.60;;;;;;10414034;28;20065;-62
2022/05/14 10:16:37;;;;;;;8.40;2.80;;;19.60;58.50;;;;;;10413735;28;20088;-62
2022/05/14 10:22:08;;;;;;;8.00;2.88;;;19.60;58.50;;;;;;10417731;28;20379;-61
2022/05/14 10:27:53;;;;;;;7.00;3.28;;;19.60;58.60;;;;;;10426809;28;20473;-62
2022/05/14 10:33:06;;;;;;;6.40;3.13;;;19.60;58.60;;;;;;10413197;28;20040;-61
2022/05/14 10:38:19;;;;;;;8.27;3.33;;;19.60;60.00;;;;;;10413262;28;20037;-62
2022/05/14 10:43:49;;;;;;;7.35;3.25;;;19.60;59.30;;;;;;10419743;28;20029;-62
2022/05/14 10:49:18;;;;;;;6.93;3.47;;;19.60;58.90;;;;;;10413220;28;20037;-62
2022/05/14 10:54:24;;;;;;;5.93;3.10;;;19.60;58.90;;;;;;10423444;28;20693;-61
2022/05/14 10:59:36;;;;;;;6.90;3.13;;;19.60;59.50;;;;;;10428187;28;20038;-62
2022/05/14 11:04:50;;;;;;;7.25;3.25;;;19.70;59.90;;;;;;10427698;28;20042;-61
2022/05/14 11:09:52;;;;;;;4.93;2.75;;;19.70;59.90;;;;;;10411638;28;20057;-63
2022/05/14 11:14:59;;;;;;;7.65;3.35;;;19.80;60.20;;;;;;10412390;28;20038;-62
2022/05/14 11:20:02;;;;;;;10.23;3.92;;;19.80;60.30;;;;;;10412516;28;20030;-61
2022/05/14 11:25:20;;;;;;;6.35;2.75;;;19.80;60.20;;;;;;10417878;28;20088;-62
2022/05/14 11:30:52;;;;;;;5.35;3.13;;;19.90;59.60;;;;;;10411880;28;20059;-62
2022/05/14 11:36:23;;;;;;;6.35;2.95;;;19.80;60.10;;;;;;10415227;28;20242;-62
2022/05/14 11:41:32;;;;;;;6.95;3.28;;;19.90;60.10;;;;;;10407449;28;20046;-62
2022/05/14 11:46:48;;;;;;;7.10;3.30;;;19.90;60.10;;;;;;10418562;28;20489;-61
2022/05/14 11:52:08;;;;;;;5.25;2.45;;;19.90;60.10;;;;;;10419183;28;20120;-61
2022/05/14 11:57:33;;;;;;;5.97;2.90;;;20.00;60.00;;;;;;10434261;28;20087;-62
2022/05/14 12:03:00;;;;;;;7.35;2.35;;;20.00;60.00;;;;;;10418815;28;20351;-61
2022/05/14 12:08:29;;;;;;;6.60;2.58;;;20.00;59.90;;;;;;10418490;28;20029;-63
2022/05/14 12:13:58;;;;;;;;;;;20.00;60.00;;;;;;10417723;28;20018;-61
2022/05/14 12:19:03;;;;;;;4.38;2.88;;;20.00;59.90;;;;;;10396798;28;19917;-61
2022/05/14 12:24:04;;;;;;;5.75;2.90;;;20.00;59.70;;;;;;10424521;28;20095;-60
2022/05/14 12:29:34;;;;;;;5.13;2.47;;;20.00;59.70;;;;;;10417610;28;20041;-62
2022/05/14 12:34:38;;;;;;;7.90;2.92;;;20.00;59.90;;;;;;10417590;28;20050;-61
2022/05/14 12:39:42;;;;;;;5.82;2.90;;;20.10;59.70;;;;;;10417069;28;20105;-61
2022/05/14 12:44:47;;;;;;;3.58;2.13;;;20.10;59.70;;;;;;10416053;28;20366;-62
2022/05/14 12:49:48;;;;;;;5.63;2.72;;;20.20;59.70;;;;;;10415331;28;20037;-62
2022/05/14 12:54:53;;;;;;;5.68;2.50;;;20.20;59.60;;;;;;10414273;28;20116;-63
2022/05/14 12:59:55;;;;;;;3.80;1.85;;;20.20;59.60;;;;;;10415303;28;20076;-62
2022/05/14 13:05:11;;;;;;;5.32;2.78;;;20.20;59.50;;;;;;10416262;28;20041;-63
2022/05/14 13:10:13;;;;;;;5.70;3.00;;;20.20;59.50;;;;;;10415831;28;20037;-62
2022/05/14 13:15:14;;;;;;;6.57;2.78;;;20.20;59.50;;;;;;10415662;28;20359;-62
2022/05/14 13:20:23;;;;;;;6.53;2.83;;;20.20;59.60;;;;;;10415950;28;20037;-62
2022/05/14 13:25:35;;;;;;;;;;;20.20;59.60;;;;;;10425312;28;20107;-61
2022/05/14 13:30:37;;;;;;;7.55;2.72;;;20.20;59.20;;;;;;10414065;28;19917;-62
2022/05/14 13:40:59;;;;;;;6.50;2.30;;;20.20;59.60;;;;;;10414945;28;20553;-62
2022/05/14 13:46:08;;;;;;;4.50;2.50;;;20.20;59.50;;;;;;10430028;28;20025;-61
2022/05/14 13:51:18;;;;;;;4.47;2.50;;;20.20;59.50;;;;;;10413498;28;20047;-62
2022/05/14 13:56:22;;;;;;;5.75;2.70;;;20.20;59.40;;;;;;10429278;28;20061;-62
2022/05/14 14:01:46;;;;;;;5.60;2.25;;;20.30;59.40;;;;;;10413639;28;20052;-62
2022/05/14 14:06:55;;;;;;;6.68;3.15;;;20.30;59.40;;;;;;10396161;28;20043;-63
2022/05/14 14:11:57;;;;;;;5.70;2.47;;;20.30;59.40;;;;;;10428921;28;20033;-62
2022/05/14 14:16:57;;;;;;;5.38;2.30;;;20.30;59.40;;;;;;10429112;28;20030;-62
2022/05/14 14:22:06;;;;;;;3.13;2.47;;;20.30;59.30;;;;;;10420631;28;20107;-62
2022/05/14 14:27:08;;;;;;;4.13;2.88;;;20.30;59.30;;;;;;10415977;28;20080;-62
2022/05/14 14:32:09;;;;;;;6.88;2.95;;;20.30;59.30;;;;;;10412230;28;20049;-62
2022/05/14 14:37:10;;;;;;;5.88;2.30;;;20.30;59.30;;;;;;10411625;28;20033;-61
2022/05/14 14:42:12;;;;;;;9.23;3.95;;;20.30;59.30;;;;;;10413381;28;20373;-62
2022/05/14 14:47:13;;;;;;;4.72;2.65;;;20.20;59.30;;;;;;10395642;28;20068;-62
2022/05/14 14:52:14;;;;;;;5.70;2.28;;;20.20;59.10;;;;;;10410389;28;20033;-62
2022/05/14 14:57:15;;;;;;;4.55;2.20;;;20.30;59.30;;;;;;10412700;28;20029;-62
2022/05/14 15:02:28;;;;;;;4.10;2.25;;;20.20;59.30;;;;;;10412578;28;20071;-58
2022/05/14 15:07:29;;;;;;;3.53;2.25;;;20.20;59.30;;;;;;10400357;28;20091;-62
2022/05/14 15:12:31;;;;;;;4.75;2.17;;;20.20;59.30;;;;;;10435331;28;20029;-61
2022/05/14 15:17:32;;;;;;;4.95;2.35;;;20.20;59.30;;;;;;10419783;28;20100;-62
2022/05/14 15:22:35;;;;;;;3.60;2.22;;;20.20;59.10;;;;;;10427850;28;20136;-62
2022/05/14 15:27:36;;;;;;;5.25;2.38;;;20.20;59.30;;;;;;10419777;28;20108;-62
2022/05/14 15:32:37;;;;;;;3.85;2.17;;;20.20;58.80;;;;;;10420167;28;20085;-62
2022/05/14 15:37:38;;;;;;;5.32;2.50;;;20.20;58.90;;;;;;10429223;28;20108;-61
2022/05/14 15:42:58;;;;;;;4.32;2.35;;;20.20;58.80;;;;;;10419700;28;20508;-62
2022/05/14 15:48:06;;;;;;;5.15;2.45;;;20.20;59.10;;;;;;10417929;28;20033;-62
2022/05/14 15:53:10;;;;;;;6.20;2.53;;;20.20;59.00;;;;;;10431689;28;20397;-62
2022/05/14 15:58:11;;;;;;;6.00;2.80;;;20.20;59.00;;;;;;10434457;28;20025;-62
2022/05/14 16:03:12;;;;;;;4.88;2.60;;;20.20;59.00;;;;;;10432982;28;20484;-63
2022/05/14 16:08:13;;;;;;;5.68;2.47;;;20.20;59.10;;;;;;10419204;28;20113;-62
2022/05/14 16:18:39;;;;;;;4.18;2.35;;;20.20;59.30;;;;;;10418468;28;20046;-62
2022/05/14 16:23:40;;;;;;;4.03;2.33;;;20.20;59.00;;;;;;10422971;28;20524;-62
2022/05/14 16:28:43;;;;;;;5.78;2.75;;;20.20;58.90;;;;;;10418198;28;20025;-62
2022/05/14 16:33:43;;;;;;;5.72;2.38;;;20.20;59.60;;;;;;10410252;28;20436;-63
2022/05/14 16:38:45;;;;;;;4.55;2.35;;;20.20;59.00;;;;;;10433012;28;20084;-63
2022/05/14 16:43:46;;;;;;;5.30;2.30;;;20.20;58.90;;;;;;10417612;28;20390;-60
2022/05/14 16:48:47;;;;;;;4.15;2.28;;;20.20;58.90;;;;;;10417250;28;20026;-62
2022/05/14 16:53:53;;;;;;;3.20;2.42;;;20.20;59.00;;;;;;10415611;28;20029;-63
2022/05/14 16:58:54;;;;;;;3.45;2.20;;;20.20;59.00;;;;;;10415677;28;20034;-62
2022/05/14 17:03:55;;;;;;;10.35;2.70;;;20.20;58.90;;;;;;10414991;28;20032;-63
2022/05/14 17:08:56;;;;;;;8.38;2.70;;;20.20;58.80;;;;;;10416470;28;20528;-62
2022/05/14 17:13:57;;;;;;;5.00;2.38;;;20.20;58.40;;;;;;10416348;28;20144;-63
2022/05/14 17:18:57;;;;;;;3.63;2.20;;;20.20;58.50;;;;;;10415964;28;20104;-62
2022/05/14 17:24:00;;;;;;;4.30;2.15;;;20.20;58.50;;;;;;10415730;28;20060;-62
2022/05/14 17:29:01;;;;;;;3.47;2.00;;;20.20;58.60;;;;;;10415312;28;20033;-63
2022/05/14 17:34:04;;;;;;;5.88;2.42;;;20.20;58.60;;;;;;10415243;28;20091;-62
2022/05/14 17:44:24;;;;;;;4.72;2.92;;;20.20;58.90;;;;;;10415267;28;20061;-62
2022/05/14 17:49:25;;;;;;;4.63;2.25;;;20.20;58.50;;;;;;10414727;28;20029;-63
2022/05/14 17:54:27;;;;;;;6.88;2.70;;;20.20;58.70;;;;;;10413938;28;20049;-63
2022/05/14 17:59:28;;;;;;;4.78;2.75;;;20.20;58.70;;;;;;10414116;28;20021;-62
2022/05/14 18:04:30;;;;;;;4.82;2.63;;;20.20;58.50;;;;;;10429841;28;20057;-62
2022/05/14 18:09:33;;;;;;;4.93;2.72;;;20.20;58.40;;;;;;10409867;28;20032;-63
2022/05/14 18:14:34;;;;;;;4.00;2.20;;;20.20;58.50;;;;;;10408179;28;20036;-63
2022/05/14 18:19:38;;;;;;;4.00;2.55;;;20.20;59.00;;;;;;10409747;28;20037;-63
2022/05/14 18:24:39;;;;;;;4.07;2.05;;;20.20;58.30;;;;;;10418304;28;20061;-62
2022/05/14 18:29:48;;;;;;;6.53;2.67;;;20.20;58.50;;;;;;10407594;28;20572;-64
2022/05/14 18:34:49;;;;;;;;;;;20.20;58.50;;;;;;10413192;28;20045;-63
2022/05/14 18:39:55;;;;;;;4.70;2.70;;;20.30;58.50;;;;;;10412969;28;20324;-63
2022/05/14 18:44:56;;;;;;;5.25;2.50;;;20.20;58.30;;;;;;10394923;28;20147;-63
2022/05/14 18:49:57;;;;;;;6.40;2.22;;;20.20;58.40;;;;;;10411840;28;20018;-61
2022/05/14 18:54:58;;;;;;;5.70;2.65;;;20.30;58.30;;;;;;10410170;28;20422;-62
2022/05/14 18:59:58;;;;;;;8.52;3.58;;;20.30;58.00;;;;;;10412329;28;20068;-64
2022/05/14 19:10:18;;;;;;;5.75;3.28;;;20.30;57.30;;;;;;10410678;28;20038;-63
2022/05/14 19:15:19;;;;;;;7.22;3.50;;;20.30;56.90;;;;;;10412536;28;20025;-63
2022/05/14 19:20:19;;;;;;;7.95;4.13;;;20.20;56.70;;;;;;10409076;28;20075;-62
2022/05/14 19:25:21;;;;;;;11.18;4.68;;;20.20;56.50;;;;;;10410621;28;20045;-62
2022/05/14 19:30:22;;;;;;;8.63;4.28;;;20.20;55.60;;;;;;10410234;28;20052;-62
2022/05/14 19:35:22;;;;;;;13.52;4.90;;;20.20;55.30;;;;;;10410048;28;20064;-61
2022/05/14 19:40:45;;;;;;;12.82;4.78;;;20.20;55.30;;;;;;10407658;28;20038;-60
2022/05/14 19:45:52;;;;;;;9.98;4.85;;;20.20;54.80;;;;;;10406441;28;20128;-62
2022/05/14 19:50:53;;;;;;;9.48;5.15;;;20.20;54.80;;;;;;10406013;28;20045;-62
2022/05/14 19:55:53;;;;;;;14.65;4.53;;;20.20;54.90;;;;;;10413784;28;20404;-62
2022/05/14 20:00:55;;;;;;;10.55;4.30;;;20.20;55.10;;;;;;10418449;28;20029;-62
2022/05/14 20:05:57;;;;;;;7.93;4.07;;;20.20;55.20;;;;;;10422837;28;20147;-61
2022/05/14 20:10:58;;;;;;;9.45;4.60;;;20.20;55.40;;;;;;10417841;28;20032;-61
2022/05/14 20:15:59;;;;;;;10.18;4.13;;;20.20;55.60;;;;;;10417949;28;20030;-62
2022/05/14 20:21:02;;;;;;;6.90;4.10;;;20.20;55.60;;;;;;10417766;28;20025;-62
2022/05/14 20:26:11;;;;;;;10.13;4.43;;;20.20;55.80;;;;;;10418513;28;20105;-62
2022/05/14 20:31:12;;;;;;;10.73;4.43;;;20.20;55.90;;;;;;10415488;28;20051;-62
2022/05/14 20:36:12;;;;;;;8.57;5.15;;;20.20;56.00;;;;;;10415215;28;20037;-62
2022/05/14 20:41:14;;;;;;;9.65;3.90;;;20.20;56.10;;;;;;10416232;28;20453;-61
2022/05/14 20:46:15;;;;;;;7.85;3.92;;;20.20;56.20;;;;;;10417826;28;20052;-62
2022/05/14 20:51:16;;;;;;;8.00;3.88;;;20.20;56.20;;;;;;10414297;28;20124;-62
2022/05/14 20:56:17;;;;;;;7.03;3.42;;;20.20;56.20;;;;;;10417073;28;20117;-61
2022/05/14 21:01:17;;;;;;;6.90;3.83;;;20.20;56.30;;;;;;10417044;28;20037;-62
2022/05/14 21:06:18;;;;;;;8.18;4.10;;;20.20;56.20;;;;;;10431365;28;20177;-62
2022/05/14 21:11:20;;;;;;;11.95;4.70;;;20.20;56.30;;;;;;10415469;28;20033;-62
2022/05/14 21:16:21;;;;;;;6.32;3.60;;;20.20;56.30;;;;;;10416160;28;20045;-62
2022/05/14 21:21:22;;;;;;;8.13;3.25;;;20.20;56.40;;;;;;10418883;28;20370;-62
2022/05/14 21:26:23;;;;;;;6.40;3.15;;;20.20;56.50;;;;;;10417298;28;20057;-62
2022/05/14 21:31:24;;;;;;;8.48;4.63;;;20.20;56.50;;;;;;10415831;28;20064;-62
2022/05/14 21:41:44;;;;;;;5.60;4.03;;;20.20;56.50;;;;;;10416186;28;20041;-62
2022/05/14 21:46:45;;;;;;;6.90;4.10;;;20.20;56.40;;;;;;10415130;28;20083;-62
2022/05/14 21:51:46;;;;;;;7.60;3.50;;;20.10;56.50;;;;;;10428082;28;20029;-62
2022/05/14 21:56:47;;;;;;;5.70;3.65;;;20.10;56.50;;;;;;10414402;28;20112;-62
2022/05/14 22:02:16;;;;;;;8.32;3.28;;;20.10;56.50;;;;;;10413359;28;20440;-62
2022/05/14 22:07:19;;;;;;;7.22;3.15;;;20.10;56.50;;;;;;10411444;28;20037;-62
2022/05/14 22:12:20;;;;;;;5.75;3.05;;;20.10;56.50;;;;;;10414086;28;20056;-62
2022/05/14 22:17:22;;;;;;;4.47;2.92;;;20.10;56.50;;;;;;10413475;28;20121;-62
2022/05/14 22:22:22;;;;;;;5.53;4.22;;;20.10;56.50;;;;;;10419504;28;20025;-62
2022/05/14 22:27:23;;;;;;;6.15;3.10;;;20.10;56.50;;;;;;10413561;28;20065;-62
2022/05/14 22:32:24;;;;;;;6.78;3.60;;;20.10;56.50;;;;;;10413509;28;20053;-62
2022/05/14 22:37:25;;;;;;;6.40;3.97;;;20.10;56.60;;;;;;10413129;28;20072;-62
2022/05/14 22:42:26;;;;;;;6.88;3.47;;;20.10;56.50;;;;;;10413509;28;20034;-62
2022/05/14 22:47:27;;;;;;;6.38;3.67;;;20.10;56.50;;;;;;10413254;28;20064;-61
2022/05/14 22:52:27;;;;;;;7.47;3.40;;;20.10;56.50;;;;;;10412585;28;20112;-61
2022/05/14 22:57:28;;;;;;;7.55;4.15;;;20.10;56.50;;;;;;10413097;28;20069;-62
2022/05/14 23:02:28;;;;;;;7.97;3.70;;;20.10;56.50;;;;;;10412793;28;20080;-62
2022/05/14 23:07:30;;;;;;;9.18;3.78;;;20.10;56.50;;;;;;10412790;28;20445;-62
2022/05/14 23:12:31;;;;;;;6.00;3.40;;;20.10;57.10;;;;;;10412117;28;20033;-62
2022/05/14 23:17:34;;;;;;;5.00;3.08;;;20.00;56.40;;;;;;10412539;28;20037;-62
2022/05/14 23:22:37;;;;;;;6.22;3.88;;;20.10;56.50;;;;;;10428381;28;20084;-62
2022/05/14 23:27:39;;;;;;;7.72;4.20;;;20.00;56.50;;;;;;10412405;28;20048;-63
2022/05/14 23:32:40;;;;;;;5.68;3.38;;;20.00;56.40;;;;;;10417919;28;20054;-62
2022/05/14 23:37:41;;;;;;;5.70;3.15;;;20.00;56.50;;;;;;10423243;28;20033;-62
2022/05/14 23:42:43;;;;;;;5.78;3.28;;;20.00;56.40;;;;;;10419722;28;20497;-62
2022/05/14 23:47:43;;;;;;;5.10;2.92;;;20.10;56.50;;;;;;10419782;28;20482;-62
2022/05/14 23:52:44;;;;;;;8.18;3.45;;;20.00;56.50;;;;;;10418986;28;20123;-62
